Glenshaw, PA

8:50 PM EDT on April 27, 2015 (GMT -0400)
W. O'hara Township | | Change Station
CLOSE
Current Station
Personal Weather Station
Location: Pittsburgh, PA
Elevation: 1161 ft
Nearby Weather Stations

Elev 1161 ft 40.52 °N, 79.93 °W | Updated 3 seconds ago

Overcast
Overcast
42.4 °F
Feels Like 42 °F
N
2.0
Wind Variable Wind from NE
Gusts 4.9 mph

Today
High -- | Low -- °F
--% Chance of Precip.
Yesterday
High -- | Low -- °F
Precip. -- in
6:24 AM 8:11 PM
Waxing Gibbous, 69% visible
Pressure 29.97 in
Visibility 10.0 miles
Clouds Scattered Clouds 2700 ft
Overcast 3300 ft
Windchill 42 °F
Dew Point 35 °F
Humidity 74%
Rainfall 0.06 in
Snow Depth Not available.
UV 0.0 out of 12
Pollen 9.80 out of 12
Air Quality Not available.
Flu Activity Sporadic
SPECI KAGC 280008Z AUTO 34010KT 10SM SCT027 OVC033 06/M01 A2997 RMK AO2 T00561011 TSNO

More Conditions Fewer Conditions

Pressure 29.97 in
Visibility 10.0 miles
Clouds Scattered Clouds 2700 ft
Overcast 3300 ft
Windchill 42 °F
Dew Point 35 °F
Humidity 74%
Rainfall 0.06 in
Snow Depth Not available.
UV 0.0 out of 12
Pollen 9.80 out of 12
Air Quality Not available.
Flu Activity Sporadic
SPECI KAGC 280008Z AUTO 34010KT 10SM SCT027 OVC033 06/M01 A2997 RMK AO2 T00561011 TSNO

More Conditions Fewer Conditions

10-Day Weather Forecast

Almanac

Astronomy

Apr. 27, 2015 Rise Set
Actual Time
Civil Twilight
Nautical Twilight
Astronomical Twilight
Moon
Length of Visible Light
Length of Day
Tomorrow will be .
, % of the Moon is Illuminated

Today's Extremes

State Highs State Lows

Community

WunderPhotos

Upload Photos

1,817,497 photos uploaded!

WunderBlogs® & News

Nearby

Air Quality

  Air Quality AQ Index Pollutant
Not available.

Snow Depth

Station Depth Elevation

Earthquake Activity

City Distance Mag. Time & Date
Minimum magnitude displayed is 2.5.

Coastal Water Temperatures

Place Temperature

Stations

Nearby Weather Stations

Station Location Temp. Windchill Dew Point Humidity Wind Precip. Elev Updated Type